createdAt,value
2023-05-01T00:01:36.569Z,5.07
2023-05-01T00:04:03.936Z,5.02
2023-05-01T00:06:33.507Z,5.03
2023-05-01T00:09:00.919Z,5.13
2023-05-01T00:11:28.387Z,5.32
2023-05-01T00:13:55.589Z,5.25
2023-05-01T00:16:23.170Z,5.18
2023-05-01T00:18:50.606Z,4.91
2023-05-01T00:21:18.107Z,4.99
2023-05-01T00:23:45.345Z,5.07
2023-05-01T00:26:12.908Z,4.82
2023-05-01T00:28:43.861Z,4.75
2023-05-01T00:31:11.451Z,4.64
2023-05-01T00:33:38.752Z,5.00
2023-05-01T00:36:06.503Z,5.05
2023-05-01T00:38:33.735Z,4.95
2023-05-01T00:41:01.316Z,4.94
2023-05-01T00:43:28.504Z,4.92
2023-05-01T00:45:56.147Z,4.68
2023-05-01T00:48:23.380Z,4.48
2023-05-01T00:50:51.054Z,4.71
2023-05-01T00:53:19.051Z,4.76
2023-05-01T00:55:47.569Z,4.65
2023-05-01T00:58:17.756Z,4.77
2023-05-01T01:00:45.476Z,4.48
2023-05-01T01:03:12.803Z,4.68
2023-05-01T01:05:45.183Z,4.93
2023-05-01T01:08:32.548Z,4.77
2023-05-01T01:11:22.711Z,4.90
2023-05-01T01:14:25.200Z,4.73
2023-05-01T01:17:10.795Z,4.76
2023-05-01T01:20:04.270Z,4.99
2023-05-01T01:22:35.491Z,4.77
2023-05-01T01:25:33.522Z,4.71
2023-05-01T01:28:16.249Z,4.74
2023-05-01T01:30:49.474Z,4.99
2023-05-01T01:33:36.264Z,4.94
2023-05-01T01:36:11.830Z,4.46
2023-05-01T01:39:03.694Z,4.45
2023-05-01T01:41:36.997Z,4.39
2023-05-01T01:44:13.387Z,4.33
2023-05-01T01:46:42.837Z,4.31
2023-05-01T01:49:20.629Z,4.60
2023-05-01T01:51:50.169Z,4.43
2023-05-01T01:54:23.771Z,4.33
2023-05-01T01:56:52.005Z,4.20
2023-05-01T01:59:23.274Z,4.19
2023-05-01T02:01:53.630Z,4.18
2023-05-01T02:04:23.053Z,4.27
2023-05-01T02:06:50.470Z,4.42
2023-05-01T02:09:21.307Z,4.08
2023-05-01T02:11:51.276Z,4.30
2023-05-01T02:14:20.838Z,4.47
2023-05-01T02:16:49.300Z,4.28
2023-05-01T02:19:18.027Z,4.25
2023-05-01T02:21:47.693Z,4.30
2023-05-01T02:24:16.023Z,4.42
2023-05-01T02:26:49.784Z,4.48
2023-05-01T02:29:17.287Z,4.29
2023-05-01T02:31:44.640Z,4.21
2023-05-01T02:34:12.389Z,4.45
2023-05-01T02:36:39.772Z,4.43
2023-05-01T02:39:07.576Z,4.46
2023-05-01T02:41:35.664Z,4.32
2023-05-01T02:44:06.079Z,4.11
2023-05-01T02:46:36.953Z,4.09
2023-05-01T02:49:06.372Z,4.08
2023-05-01T02:51:35.743Z,4.23
2023-05-01T02:54:04.013Z,4.23
2023-05-01T02:56:31.809Z,4.26
2023-05-01T02:58:59.293Z,4.21
2023-05-01T03:01:27.055Z,4.25
2023-05-01T03:03:54.859Z,4.22
2023-05-01T03:06:22.262Z,4.27
2023-05-01T03:08:49.922Z,4.18
2023-05-01T03:11:17.433Z,4.00
2023-05-01T03:13:46.270Z,4.28
2023-05-01T03:16:13.555Z,4.28
2023-05-01T03:18:41.136Z,4.59
2023-05-01T03:21:08.308Z,4.53
2023-05-01T03:23:38.421Z,4.71
2023-05-01T03:26:05.792Z,5.05
2023-05-01T03:28:33.389Z,5.23
2023-05-01T03:31:00.984Z,5.49
2023-05-01T03:33:28.596Z,5.63
2023-05-01T03:36:04.252Z,5.77
2023-05-01T03:38:33.322Z,6.21
2023-05-01T03:41:10.250Z,7.04
2023-05-01T03:43:50.538Z,7.81
2023-05-01T03:46:41.458Z,8.35
2023-05-01T03:49:14.147Z,8.19
2023-05-01T03:51:46.832Z,8.13
2023-05-01T03:54:14.536Z,8.37
2023-05-01T03:56:58.647Z,8.90
2023-05-01T03:59:27.241Z,9.78
2023-05-01T04:01:54.501Z,10.94
2023-05-01T04:04:22.444Z,11.60
2023-05-01T04:06:56.213Z,12.59
2023-05-01T04:09:23.867Z,13.47
2023-05-01T04:11:51.294Z,13.50
2023-05-01T04:14:18.784Z,14.38
2023-05-01T04:16:46.037Z,14.98
2023-05-01T04:19:14.058Z,15.02
2023-05-01T04:21:43.864Z,15.02
2023-05-01T04:24:11.370Z,15.98
2023-05-01T04:26:39.429Z,15.19
2023-05-01T04:29:07.694Z,15.73
2023-05-01T04:31:35.201Z,15.72
2023-05-01T04:34:02.860Z,14.94
2023-05-01T04:36:32.970Z,12.86
2023-05-01T04:39:00.775Z,14.37
2023-05-01T04:41:29.501Z,14.17
2023-05-01T04:43:57.200Z,13.92
2023-05-01T04:46:24.497Z,16.08
2023-05-01T04:48:52.331Z,16.36
2023-05-01T04:51:20.618Z,16.81
2023-05-01T04:53:48.415Z,15.66
2023-05-01T04:56:22.816Z,16.62
2023-05-01T04:58:53.892Z,17.73
2023-05-01T05:01:23.710Z,19.26
2023-05-01T05:03:51.980Z,19.53
2023-05-01T05:06:20.120Z,20.46
2023-05-01T05:08:47.719Z,22.10
2023-05-01T05:11:15.546Z,23.78
2023-05-01T05:13:56.373Z,24.47
2023-05-01T05:16:23.695Z,26.32
2023-05-01T05:18:51.274Z,27.19
2023-05-01T05:21:19.368Z,25.58
2023-05-01T05:23:53.522Z,27.92
2023-05-01T05:26:20.839Z,27.37
2023-05-01T05:28:51.048Z,29.11
2023-05-01T05:31:18.460Z,29.10
2023-05-01T05:33:46.356Z,30.00
2023-05-01T05:36:15.597Z,29.65
2023-05-01T05:38:44.183Z,31.06
2023-05-01T05:41:15.049Z,31.90
2023-05-01T05:43:42.811Z,32.31
2023-05-01T05:46:10.368Z,32.16
2023-05-01T05:48:39.487Z,32.16
2023-05-01T05:51:06.748Z,30.57
2023-05-01T05:53:35.246Z,30.07
2023-05-01T05:56:02.843Z,28.24
2023-05-01T05:58:31.575Z,26.61
2023-05-01T06:00:59.067Z,24.34
2023-05-01T06:03:27.491Z,26.68
2023-05-01T06:05:59.271Z,26.62
2023-05-01T06:08:27.480Z,30.03
2023-05-01T06:10:54.766Z,31.23
2023-05-01T06:13:22.366Z,32.93
2023-05-01T06:15:50.565Z,33.60
2023-05-01T06:18:18.295Z,33.44
2023-05-01T06:20:45.782Z,36.04
2023-05-01T06:23:14.027Z,35.67
2023-05-01T06:25:52.657Z,32.88
2023-05-01T06:28:20.465Z,33.46
2023-05-01T06:30:48.429Z,36.11
2023-05-01T06:33:17.867Z,35.68
2023-05-01T06:35:49.092Z,35.86
2023-05-01T06:38:16.754Z,35.06
2023-05-01T06:40:47.069Z,35.59
2023-05-01T06:43:14.731Z,35.59
2023-05-01T06:45:42.234Z,35.42
2023-05-01T06:48:09.767Z,35.09
2023-05-01T06:50:37.153Z,35.88
2023-05-01T06:53:04.935Z,33.86
2023-05-01T06:55:33.875Z,36.09
2023-05-01T06:58:12.640Z,36.21
2023-05-01T07:00:50.808Z,35.46
2023-05-01T07:03:18.438Z,33.94
2023-05-01T07:05:45.800Z,35.26
2023-05-01T07:08:14.441Z,36.03
2023-05-01T07:10:42.329Z,36.41
2023-05-01T07:13:10.675Z,37.19
2023-05-01T07:15:38.081Z,36.17
2023-05-01T07:18:08.834Z,36.89
2023-05-01T07:20:36.167Z,36.10
2023-05-01T07:23:05.338Z,33.97
2023-05-01T07:25:34.521Z,34.83
2023-05-01T07:28:04.672Z,34.53
2023-05-01T07:30:33.281Z,33.40
2023-05-01T07:33:00.978Z,32.96
2023-05-01T07:35:28.531Z,35.86
2023-05-01T07:37:56.047Z,34.79
2023-05-01T07:40:23.219Z,32.66
2023-05-01T07:42:53.116Z,35.38
2023-05-01T07:45:21.564Z,35.76
2023-05-01T07:47:49.696Z,36.18
2023-05-01T07:50:17.265Z,36.35
2023-05-01T07:52:45.474Z,36.80
2023-05-01T07:55:13.036Z,36.97
2023-05-01T07:57:40.885Z,36.52
2023-05-01T08:00:08.530Z,35.44
2023-05-01T08:02:41.489Z,33.73
2023-05-01T08:05:09.478Z,33.09
2023-05-01T08:07:37.219Z,33.67
2023-05-01T08:10:05.087Z,33.40
2023-05-01T08:12:32.895Z,32.33
2023-05-01T08:15:00.187Z,30.84
2023-05-01T08:17:27.702Z,32.28
2023-05-01T08:19:56.851Z,31.76
2023-05-01T08:22:24.636Z,30.73
2023-05-01T08:24:53.451Z,31.66
2023-05-01T08:27:21.117Z,32.86
2023-05-01T08:29:48.556Z,33.73
2023-05-01T08:32:17.847Z,32.30
2023-05-01T08:34:45.061Z,30.02
2023-05-01T08:37:12.597Z,24.17
2023-05-01T08:39:39.788Z,27.45
2023-05-01T08:42:08.450Z,29.26
2023-05-01T08:44:38.400Z,29.92
2023-05-01T08:47:15.837Z,31.69
2023-05-01T08:49:44.345Z,31.43
2023-05-01T08:52:13.574Z,32.15
2023-05-01T08:54:44.793Z,32.02
2023-05-01T08:57:12.941Z,31.74
2023-05-01T08:59:41.106Z,31.71
2023-05-01T09:02:10.471Z,30.60
2023-05-01T09:04:39.884Z,29.08
2023-05-01T09:07:08.660Z,29.49
2023-05-01T09:09:36.871Z,28.25
2023-05-01T09:12:25.376Z,27.96
2023-05-01T09:14:54.472Z,27.97
2023-05-01T09:17:23.494Z,26.74
2023-05-01T09:19:51.337Z,27.01
2023-05-01T09:22:19.937Z,28.71
2023-05-01T09:24:47.308Z,27.98
2023-05-01T09:27:15.192Z,28.75
2023-05-01T09:29:44.611Z,28.81
2023-05-01T09:32:28.497Z,22.59
2023-05-01T09:35:09.509Z,21.95
2023-05-01T09:37:37.165Z,22.92
2023-05-01T09:40:12.042Z,23.36
2023-05-01T09:42:41.899Z,23.63
2023-05-01T09:45:15.891Z,21.92
2023-05-01T09:47:46.461Z,20.86
2023-05-01T09:50:34.585Z,18.91
2023-05-01T09:53:04.941Z,21.20
2023-05-01T09:55:33.160Z,22.80
2023-05-01T09:58:01.096Z,19.21
2023-05-01T10:00:28.367Z,22.43
2023-05-01T10:02:56.268Z,24.79
2023-05-01T10:05:24.669Z,22.39
2023-05-01T10:08:03.868Z,23.61
2023-05-01T10:10:31.348Z,23.79
2023-05-01T10:13:14.665Z,22.29
2023-05-01T10:15:41.920Z,21.38
2023-05-01T10:18:13.887Z,22.68
2023-05-01T10:20:41.170Z,22.98
2023-05-01T10:23:09.429Z,24.12
2023-05-01T10:25:37.269Z,22.68
2023-05-01T10:28:06.398Z,22.65
2023-05-01T10:30:35.777Z,22.20
2023-05-01T10:33:03.641Z,21.38
2023-05-01T10:35:39.231Z,21.90
2023-05-01T10:38:09.689Z,22.30
2023-05-01T10:40:40.070Z,22.82
2023-05-01T10:43:17.479Z,22.46
2023-05-01T10:45:46.207Z,20.65
2023-05-01T10:48:45.464Z,22.07
2023-05-01T10:51:18.028Z,21.06
2023-05-01T10:53:47.049Z,19.37
2023-05-01T10:56:27.196Z,19.92
2023-05-01T10:59:04.937Z,17.87
2023-05-01T11:01:43.287Z,17.32
2023-05-01T11:04:27.207Z,18.75
2023-05-01T11:07:08.262Z,18.06
2023-05-01T11:09:38.145Z,18.19
2023-05-01T11:12:06.665Z,18.27
2023-05-01T11:15:03.761Z,18.29
2023-05-01T11:17:42.785Z,18.18
2023-05-01T11:20:26.069Z,16.04
2023-05-01T11:22:55.803Z,16.48
2023-05-01T11:25:27.355Z,16.38
2023-05-01T11:28:02.423Z,16.40
2023-05-01T11:30:40.447Z,16.33
2023-05-01T11:33:10.769Z,14.66
2023-05-01T11:35:39.109Z,15.34
2023-05-01T11:38:06.451Z,15.34
2023-05-01T11:40:35.258Z,15.13
2023-05-01T11:43:07.168Z,15.93
2023-05-01T11:45:36.492Z,16.49
2023-05-01T11:48:05.071Z,15.97
2023-05-01T11:50:35.885Z,16.07
2023-05-01T11:53:11.814Z,15.52
2023-05-01T11:55:40.369Z,15.69
2023-05-01T11:58:08.029Z,15.64
2023-05-01T12:00:38.169Z,14.75
2023-05-01T12:03:10.941Z,15.65
2023-05-01T12:05:44.350Z,15.25
2023-05-01T12:08:20.835Z,15.47
2023-05-01T12:10:52.180Z,15.72
2023-05-01T12:13:20.788Z,15.73
2023-05-01T12:15:52.017Z,15.66
2023-05-01T12:18:21.596Z,16.07
2023-05-01T12:20:56.231Z,15.94
2023-05-01T12:23:36.043Z,15.92
2023-05-01T12:26:17.482Z,15.58
2023-05-01T12:28:58.640Z,15.69
2023-05-01T12:31:27.144Z,15.76
2023-05-01T12:34:01.898Z,15.75
2023-05-01T12:36:31.990Z,15.83
2023-05-01T12:39:02.940Z,16.01
2023-05-01T12:41:44.474Z,15.79
2023-05-01T12:44:19.344Z,15.84
2023-05-01T12:47:03.270Z,15.97
2023-05-01T12:49:32.516Z,15.11
2023-05-01T12:52:01.787Z,15.20
2023-05-01T12:54:31.531Z,15.98
2023-05-01T12:57:19.344Z,15.98
2023-05-01T12:59:47.210Z,16.02
2023-05-01T13:02:17.799Z,15.93
2023-05-01T13:04:46.564Z,16.15
2023-05-01T13:07:16.543Z,16.10
2023-05-01T13:09:54.607Z,16.05
2023-05-01T13:12:23.505Z,15.86
2023-05-01T13:14:51.459Z,16.17
2023-05-01T13:17:25.854Z,15.70
2023-05-01T13:19:58.092Z,16.28
2023-05-01T13:22:37.998Z,16.23
2023-05-01T13:25:15.076Z,15.91
2023-05-01T13:27:48.689Z,15.59
2023-05-01T13:30:19.872Z,15.68
2023-05-01T13:32:48.865Z,15.96
2023-05-01T13:35:24.158Z,16.43
2023-05-01T13:37:52.608Z,16.74
2023-05-01T13:40:20.621Z,16.63
2023-05-01T13:42:52.882Z,16.29
2023-05-01T13:45:23.343Z,16.43
2023-05-01T13:47:52.170Z,16.66
2023-05-01T13:50:19.541Z,15.91
2023-05-01T13:52:47.697Z,15.99
2023-05-01T13:55:14.964Z,16.32
2023-05-01T13:57:43.343Z,16.16
2023-05-01T14:00:19.301Z,16.23
2023-05-01T14:02:49.445Z,16.30
2023-05-01T14:05:20.770Z,16.77
2023-05-01T14:07:55.364Z,16.34
2023-05-01T14:10:26.432Z,16.58
2023-05-01T14:12:59.028Z,16.64
2023-05-01T14:15:27.033Z,16.71
2023-05-01T14:17:54.690Z,16.67
2023-05-01T14:20:25.342Z,16.52
2023-05-01T14:22:53.605Z,16.82
2023-05-01T14:25:29.939Z,16.67
2023-05-01T14:27:59.471Z,16.52
2023-05-01T14:30:27.274Z,16.53
2023-05-01T14:32:55.335Z,16.31
2023-05-01T14:35:23.994Z,16.22
2023-05-01T14:37:51.668Z,16.40
2023-05-01T14:40:23.181Z,16.74
2023-05-01T14:42:51.597Z,16.00
2023-05-01T14:45:18.965Z,16.24
2023-05-01T14:47:48.702Z,16.64
2023-05-01T14:50:22.729Z,16.52
2023-05-01T14:52:58.450Z,16.59
2023-05-01T14:55:28.389Z,16.22
2023-05-01T14:57:57.113Z,16.73
2023-05-01T15:00:24.733Z,16.36
2023-05-01T15:02:52.563Z,16.48
2023-05-01T15:05:19.870Z,16.69
2023-05-01T15:07:47.516Z,16.53
2023-05-01T15:10:16.069Z,16.71
2023-05-01T15:12:43.574Z,16.72
2023-05-01T15:15:11.456Z,16.89
2023-05-01T15:17:39.133Z,16.31
2023-05-01T15:20:07.099Z,16.84
2023-05-01T15:22:34.657Z,16.37
2023-05-01T15:25:01.856Z,16.49
2023-05-01T15:27:29.602Z,16.28
2023-05-01T15:29:57.431Z,16.41
2023-05-01T15:32:25.127Z,16.37
2023-05-01T15:34:56.761Z,16.52
2023-05-01T15:37:24.926Z,16.52
2023-05-01T15:39:52.347Z,16.93
2023-05-01T15:42:20.410Z,16.69
2023-05-01T15:44:48.003Z,16.64
2023-05-01T15:47:15.588Z,16.33
2023-05-01T15:49:42.992Z,16.54
2023-05-01T15:52:11.422Z,16.46
2023-05-01T15:54:38.653Z,16.52
2023-05-01T15:57:07.749Z,16.59
2023-05-01T15:59:34.943Z,16.80
2023-05-01T16:02:02.665Z,16.61
2023-05-01T16:04:30.038Z,16.49
2023-05-01T16:06:57.643Z,16.65
2023-05-01T16:09:31.886Z,16.48
2023-05-01T16:12:01.709Z,16.47
2023-05-01T16:14:28.999Z,16.65
2023-05-01T16:16:56.925Z,16.51
2023-05-01T16:19:24.222Z,16.50
2023-05-01T16:21:51.742Z,16.54
2023-05-01T16:24:19.002Z,16.94
2023-05-01T16:26:46.578Z,16.41
2023-05-01T16:29:13.914Z,16.45
2023-05-01T16:31:47.364Z,16.48
2023-05-01T16:34:18.099Z,16.19
2023-05-01T16:36:47.016Z,16.45
2023-05-01T16:39:16.761Z,16.05
2023-05-01T16:41:47.466Z,15.99
2023-05-01T16:44:19.029Z,15.95
2023-05-01T16:46:53.649Z,16.15
2023-05-01T16:49:22.013Z,16.14
2023-05-01T16:51:50.262Z,16.02
2023-05-01T16:54:18.663Z,15.86
2023-05-01T16:56:46.172Z,15.87
2023-05-01T16:59:13.374Z,15.80
2023-05-01T17:01:40.903Z,15.91
2023-05-01T17:04:08.518Z,15.95
2023-05-01T17:06:36.500Z,15.81
2023-05-01T17:09:03.766Z,15.40
2023-05-01T17:11:32.077Z,15.35
2023-05-01T17:13:59.475Z,15.37
2023-05-01T17:16:27.580Z,15.69
2023-05-01T17:18:54.946Z,15.63
2023-05-01T17:21:24.705Z,15.46
2023-05-01T17:23:51.982Z,15.25
2023-05-01T17:26:19.450Z,15.37
2023-05-01T17:28:46.721Z,15.05
2023-05-01T17:31:15.401Z,15.28
2023-05-01T17:33:44.069Z,15.27
2023-05-01T17:36:11.833Z,15.06
2023-05-01T17:38:39.063Z,14.83
2023-05-01T17:41:07.073Z,14.98
2023-05-01T17:43:34.220Z,14.68
2023-05-01T17:46:01.885Z,15.10
2023-05-01T17:48:29.082Z,14.83
2023-05-01T17:50:56.629Z,14.86
2023-05-01T17:53:24.023Z,15.07
2023-05-01T17:55:52.170Z,14.87
2023-05-01T17:58:19.373Z,14.89
2023-05-01T18:00:47.722Z,14.72
2023-05-01T18:03:15.131Z,14.76
2023-05-01T18:05:42.794Z,14.42
2023-05-01T18:08:10.048Z,14.75
2023-05-01T18:10:37.598Z,14.63
2023-05-01T18:13:04.834Z,14.63
2023-05-01T18:15:32.415Z,14.65
2023-05-01T18:17:59.838Z,14.35
2023-05-01T18:20:27.778Z,14.40
2023-05-01T18:22:54.937Z,14.31
2023-05-01T18:25:22.634Z,14.38
2023-05-01T18:27:49.914Z,14.21
2023-05-01T18:30:17.464Z,14.11
2023-05-01T18:32:48.031Z,14.33
2023-05-01T18:35:18.622Z,14.25
2023-05-01T18:37:46.655Z,14.07
2023-05-01T18:40:14.266Z,14.19
2023-05-01T18:42:42.022Z,13.94
2023-05-01T18:45:14.239Z,13.59
2023-05-01T18:47:41.646Z,13.75
2023-05-01T18:50:09.951Z,14.03
2023-05-01T18:52:37.305Z,14.12
2023-05-01T18:55:05.340Z,13.79
2023-05-01T18:57:32.739Z,13.92
2023-05-01T19:00:01.430Z,13.73
2023-05-01T19:02:29.037Z,13.71
2023-05-01T19:04:58.316Z,13.74
2023-05-01T19:07:26.548Z,13.71
2023-05-01T19:09:54.324Z,13.80
2023-05-01T19:12:21.593Z,13.85
2023-05-01T19:14:49.094Z,13.75
2023-05-01T19:17:16.272Z,13.63
2023-05-01T19:19:43.762Z,13.54
2023-05-01T19:22:11.133Z,13.43
2023-05-01T19:24:38.856Z,13.29
2023-05-01T19:27:06.049Z,13.55
2023-05-01T19:29:34.110Z,13.15
2023-05-01T19:32:01.548Z,13.19
2023-05-01T19:34:29.289Z,13.24
2023-05-01T19:36:57.096Z,13.37
2023-05-01T19:39:24.648Z,13.05
2023-05-01T19:41:52.084Z,13.27
2023-05-01T19:44:19.664Z,12.96
2023-05-01T19:46:46.965Z,13.32
2023-05-01T19:49:15.121Z,13.45
2023-05-01T19:51:42.528Z,13.38
2023-05-01T19:54:09.989Z,13.30
2023-05-01T19:56:38.686Z,13.00
2023-05-01T19:59:06.529Z,13.03
2023-05-01T20:01:38.992Z,12.84
2023-05-01T20:04:06.805Z,13.08
2023-05-01T20:06:34.223Z,12.93
2023-05-01T20:09:02.202Z,13.00
2023-05-01T20:11:29.397Z,12.72
2023-05-01T20:13:56.986Z,12.78
2023-05-01T20:16:24.325Z,13.01
2023-05-01T20:18:52.140Z,13.12
2023-05-01T20:21:19.334Z,12.80
2023-05-01T20:23:46.808Z,12.69
2023-05-01T20:26:13.993Z,13.00
2023-05-01T20:28:41.476Z,13.11
2023-05-01T20:31:09.566Z,13.13
2023-05-01T20:33:37.094Z,13.12
2023-05-01T20:36:05.536Z,13.03
2023-05-01T20:38:47.647Z,12.66
2023-05-01T20:41:15.205Z,12.98
2023-05-01T20:43:42.932Z,13.00
2023-05-01T20:46:10.289Z,12.90
2023-05-01T20:48:37.863Z,12.95
2023-05-01T20:51:05.099Z,12.98
2023-05-01T20:53:32.929Z,13.03
2023-05-01T20:56:00.163Z,12.92
2023-05-01T20:58:27.708Z,13.01
2023-05-01T21:00:55.921Z,12.91
2023-05-01T21:03:23.819Z,13.32
2023-05-01T21:05:51.136Z,13.38
2023-05-01T21:08:19.530Z,13.31
2023-05-01T21:10:46.705Z,13.26
2023-05-01T21:13:15.255Z,13.28
2023-05-01T21:15:42.497Z,13.33
2023-05-01T21:18:12.527Z,13.09
2023-05-01T21:20:41.248Z,13.45
2023-05-01T21:23:08.954Z,13.21
2023-05-01T21:25:36.196Z,13.24
2023-05-01T21:28:05.888Z,13.40
2023-05-01T21:30:35.223Z,13.26
2023-05-01T21:33:06.534Z,13.13
2023-05-01T21:35:34.027Z,13.11
2023-05-01T21:38:01.586Z,12.94
2023-05-01T21:40:28.980Z,13.05
2023-05-01T21:42:56.620Z,13.22
2023-05-01T21:45:24.753Z,13.12
2023-05-01T21:47:52.469Z,12.85
2023-05-01T21:50:21.277Z,12.96
2023-05-01T21:52:49.989Z,13.22
2023-05-01T21:55:22.283Z,13.31
2023-05-01T21:57:50.355Z,13.23
2023-05-01T22:00:19.160Z,13.15
2023-05-01T22:02:48.978Z,13.16
2023-05-01T22:05:20.064Z,13.14
2023-05-01T22:07:48.396Z,13.29
2023-05-01T22:10:18.113Z,13.24
2023-05-01T22:12:46.318Z,12.62
2023-05-01T22:15:15.633Z,13.06
2023-05-01T22:17:45.074Z,13.07
2023-05-01T22:20:12.619Z,13.17
2023-05-01T22:22:41.618Z,12.99
2023-05-01T22:25:10.003Z,12.90
2023-05-01T22:27:38.079Z,12.94
2023-05-01T22:30:06.237Z,12.85
2023-05-01T22:32:34.132Z,12.93
2023-05-01T22:35:01.743Z,12.81
2023-05-01T22:37:30.151Z,12.92
2023-05-01T22:39:57.775Z,12.94
2023-05-01T22:42:25.809Z,12.71
2023-05-01T22:44:53.095Z,12.44
2023-05-01T22:47:20.606Z,12.54
2023-05-01T22:49:47.861Z,12.78
2023-05-01T22:52:15.563Z,12.78
2023-05-01T22:54:42.709Z,12.67
2023-05-01T22:57:10.372Z,12.70
2023-05-01T22:59:39.610Z,12.67
2023-05-01T23:02:07.285Z,12.48
2023-05-01T23:04:34.584Z,12.30
2023-05-01T23:07:02.253Z,12.86
2023-05-01T23:09:32.975Z,12.92
2023-05-01T23:12:00.509Z,12.48
2023-05-01T23:14:27.851Z,12.80
2023-05-01T23:16:55.412Z,12.63
2023-05-01T23:19:24.887Z,12.76
2023-05-01T23:22:08.722Z,12.67
2023-05-01T23:24:43.782Z,12.49
2023-05-01T23:27:13.578Z,12.15
2023-05-01T23:29:41.596Z,12.67
2023-05-01T23:32:18.427Z,12.50
2023-05-01T23:34:45.772Z,12.60
2023-05-01T23:37:13.266Z,12.23
2023-05-01T23:39:40.598Z,12.64
2023-05-01T23:42:08.115Z,12.44
2023-05-01T23:44:35.386Z,12.32
2023-05-01T23:47:03.246Z,12.43
2023-05-01T23:49:30.715Z,12.61
2023-05-01T23:51:58.232Z,12.62
2023-05-01T23:54:25.402Z,12.29
2023-05-01T23:56:53.659Z,12.66
2023-05-01T23:59:20.856Z,12.68
